Time;durP1;ratioP1;P1;durP2;ratioP2;P2;SDS_P1;SDS_P2;PMS_P1;PMS_P2;Temp;Humidity;BMP_temperature;BMP_pressure;BME280_temperature;BME280_humidity;BME280_pressure;Samples;Min_cycle;Max_cycle;Signal;HPM_P1;HPM_P2
2021/01/06 00:02:06;;;;;;;21.58;15.57;;;;;;;;;;6047055;29;20056;-74
2021/01/06 00:05:09;;;;;;;20.83;14.90;;;;;;;;;;6073035;29;20049;-71
2021/01/06 00:08:11;;;;;;;22.35;16.10;;;;;;;;;;6067276;29;20060;-74
2021/01/06 00:11:13;;;;;;;21.55;15.18;;;;;;;;;;6071263;29;20132;-72
2021/01/06 00:14:16;;;;;;;23.70;16.02;;;;;;;;;;6064492;29;20707;-71
2021/01/06 00:17:18;;;;;;;21.08;15.25;;;;;;;;;;6070563;29;20436;-71
2021/01/06 00:20:20;;;;;;;21.20;15.20;;;;;;;;;;6072951;29;20049;-75
2021/01/06 00:23:22;;;;;;;23.98;16.33;;;;;;;;;;6078307;29;20075;-70
2021/01/06 00:26:23;;;;;;;20.88;15.30;;;;;;;;;;6085446;29;20060;-71
2021/01/06 00:29:24;;;;;;;22.80;15.55;;;;;;;;;;6080031;29;20184;-73
2021/01/06 00:32:26;;;;;;;24.42;16.88;;;;;;;;;;6078370;29;20488;-71
2021/01/06 00:35:27;;;;;;;22.88;15.63;;;;;;;;;;6080926;29;20048;-71
2021/01/06 00:38:29;;;;;;;20.67;15.40;;;;;;;;;;6078703;29;20151;-71
2021/01/06 00:41:32;;;;;;;22.30;15.77;;;;;;;;;;6080881;29;20048;-71
2021/01/06 00:44:33;;;;;;;20.48;14.95;;;;;;;;;;6079088;29;20052;-71
2021/01/06 00:47:35;;;;;;;22.20;15.25;;;;;;;;;;6081770;29;20135;-71
2021/01/06 00:50:36;;;;;;;22.98;15.48;;;;;;;;;;6081793;29;20543;-70
2021/01/06 00:53:37;;;;;;;20.27;15.27;;;;;;;;;;6079265;29;20136;-71
2021/01/06 00:56:38;;;;;;;20.95;15.55;;;;;;;;;;6080683;29;20051;-69
2021/01/06 00:59:39;;;;;;;23.88;16.08;;;;;;;;;;6079680;29;20551;-69
2021/01/06 01:02:44;;;;;;;22.40;15.77;;;;;;;;;;6080070;29;20092;-68
2021/01/06 01:05:45;;;;;;;23.77;16.48;;;;;;;;;;6074712;29;20080;-72
2021/01/06 01:08:47;;;;;;;22.58;15.85;;;;;;;;;;6074750;29;20049;-69
2021/01/06 01:11:48;;;;;;;24.30;16.83;;;;;;;;;;6075027;29;20100;-69
2021/01/06 01:14:50;;;;;;;23.70;16.67;;;;;;;;;;6071380;29;20049;-70
2021/01/06 01:17:52;;;;;;;47.78;27.70;;;;;;;;;;6077334;29;20072;-71
2021/01/06 01:20:54;;;;;;;72.20;40.70;;;;;;;;;;6076862;29;20143;-70
2021/01/06 01:23:55;;;;;;;97.28;50.65;;;;;;;;;;6090410;29;20051;-69
2021/01/06 01:26:56;;;;;;;58.80;33.33;;;;;;;;;;6076509;29;20399;-70
2021/01/06 01:29:57;;;;;;;30.13;20.33;;;;;;;;;;6074823;29;20123;-69
2021/01/06 01:32:59;;;;;;;28.80;18.02;;;;;;;;;;6086773;29;20048;-70
2021/01/06 01:36:01;;;;;;;29.35;17.75;;;;;;;;;;6074842;29;20452;-70
2021/01/06 01:39:03;;;;;;;33.17;19.00;;;;;;;;;;6077836;29;20060;-75
2021/01/06 01:42:05;;;;;;;29.33;17.65;;;;;;;;;;6077391;29;20132;-70
2021/01/06 01:45:06;;;;;;;30.65;18.63;;;;;;;;;;6080631;29;20135;-71
2021/01/06 01:48:16;;;;;;;29.48;18.02;;;;;;;;;;6078248;29;20059;-70
2021/01/06 01:51:20;;;;;;;28.58;16.15;;;;;;;;;;6074107;29;20064;-72
2021/01/06 01:54:21;;;;;;;25.15;16.00;;;;;;;;;;6070892;29;20062;-71
2021/01/06 01:57:27;;;;;;;25.00;16.08;;;;;;;;;;6075547;29;20143;-70
2021/01/06 02:00:30;;;;;;;26.38;15.75;;;;;;;;;;6072784;29;20040;-75
2021/01/06 02:03:35;;;;;;;24.45;14.98;;;;;;;;;;6072061;29;20136;-72
2021/01/06 02:06:39;;;;;;;24.92;15.13;;;;;;;;;;6075183;29;20048;-70
2021/01/06 02:09:51;;;;;;;25.38;15.43;;;;;;;;;;6073834;29;20182;-70
2021/01/06 02:12:56;;;;;;;24.13;14.55;;;;;;;;;;6079268;29;20041;-70
2021/01/06 02:16:05;;;;;;;23.65;14.63;;;;;;;;;;6075609;29;22125;-72
2021/01/06 02:19:08;;;;;;;21.80;13.15;;;;;;;;;;6075779;29;20130;-69
2021/01/06 02:22:12;;;;;;;21.55;13.43;;;;;;;;;;6075442;29;20052;-69
2021/01/06 02:25:16;;;;;;;20.47;13.43;;;;;;;;;;6074944;29;20049;-70
2021/01/06 02:28:17;;;;;;;22.60;13.88;;;;;;;;;;6075699;29;20052;-71
2021/01/06 02:31:19;;;;;;;19.17;12.73;;;;;;;;;;6076098;29;20052;-69
2021/01/06 02:34:21;;;;;;;21.77;13.52;;;;;;;;;;6080602;29;20049;-69
2021/01/06 02:37:23;;;;;;;20.23;12.63;;;;;;;;;;6079576;29;20048;-69
2021/01/06 02:40:25;;;;;;;21.17;13.23;;;;;;;;;;6077989;29;20151;-68
2021/01/06 02:43:28;;;;;;;21.08;12.93;;;;;;;;;;6078083;29;20085;-69
2021/01/06 02:46:29;;;;;;;19.42;12.10;;;;;;;;;;6079167;29;20131;-69
2021/01/06 02:49:30;;;;;;;18.77;11.88;;;;;;;;;;6081220;29;20055;-69
2021/01/06 02:52:34;;;;;;;19.00;12.00;;;;;;;;;;6083634;29;20063;-69
2021/01/06 02:55:37;;;;;;;16.60;11.10;;;;;;;;;;6084262;29;20051;-69
2021/01/06 02:58:38;;;;;;;16.65;10.45;;;;;;;;;;6080116;29;20053;-69
2021/01/06 03:01:41;;;;;;;16.65;10.32;;;;;;;;;;6070186;29;20523;-72
2021/01/06 03:04:49;;;;;;;14.70;9.50;;;;;;;;;;6071306;29;20479;-69
2021/01/06 03:07:51;;;;;;;13.27;8.32;;;;;;;;;;6074856;29;20060;-68
2021/01/06 03:10:53;;;;;;;14.05;9.00;;;;;;;;;;6079878;29;20054;-69
2021/01/06 03:13:54;;;;;;;14.27;9.02;;;;;;;;;;6075810;29;20053;-69
2021/01/06 03:16:55;;;;;;;14.02;9.15;;;;;;;;;;6073270;29;20053;-70
2021/01/06 03:20:00;;;;;;;16.77;9.80;;;;;;;;;;6077752;29;20567;-70
2021/01/06 03:23:06;;;;;;;14.35;9.80;;;;;;;;;;6075794;29;20072;-72
2021/01/06 03:26:10;;;;;;;12.48;7.93;;;;;;;;;;6075764;29;20044;-69
2021/01/06 03:29:12;;;;;;;13.43;8.70;;;;;;;;;;6079676;29;20055;-69
2021/01/06 03:32:20;;;;;;;13.25;8.43;;;;;;;;;;6080912;29;20766;-70
2021/01/06 03:35:26;;;;;;;12.15;7.75;;;;;;;;;;6080474;29;20423;-72
2021/01/06 03:38:33;;;;;;;11.75;7.60;;;;;;;;;;6076493;29;20057;-72
2021/01/06 03:41:34;;;;;;;10.68;7.25;;;;;;;;;;6079362;29;20056;-69
2021/01/06 03:44:35;;;;;;;10.73;7.28;;;;;;;;;;6080626;29;20499;-70
2021/01/06 03:47:40;;;;;;;9.68;6.82;;;;;;;;;;6076090;29;20132;-68
2021/01/06 03:50:42;;;;;;;9.25;6.28;;;;;;;;;;6078162;29;20100;-69
2021/01/06 03:53:47;;;;;;;8.70;6.13;;;;;;;;;;6075630;29;20064;-70
2021/01/06 03:56:50;;;;;;;9.52;6.20;;;;;;;;;;6075230;29;20040;-70
2021/01/06 03:59:51;;;;;;;11.57;7.18;;;;;;;;;;6079394;29;20056;-71
2021/01/06 04:02:54;;;;;;;9.18;6.00;;;;;;;;;;6077904;29;20052;-70
2021/01/06 04:05:57;;;;;;;8.45;5.72;;;;;;;;;;6076838;29;20467;-72
2021/01/06 04:09:01;;;;;;;9.07;5.80;;;;;;;;;;6079757;29;20131;-72
2021/01/06 04:12:06;;;;;;;9.75;6.90;;;;;;;;;;6082012;29;20115;-73
2021/01/06 04:15:09;;;;;;;9.20;6.55;;;;;;;;;;6079284;29;20044;-71
2021/01/06 04:18:10;;;;;;;10.90;7.40;;;;;;;;;;6078208;29;20544;-71
2021/01/06 04:21:11;;;;;;;10.18;6.70;;;;;;;;;;6077547;29;20069;-72
2021/01/06 04:24:13;;;;;;;10.60;7.28;;;;;;;;;;6077678;29;20139;-72
2021/01/06 04:27:17;;;;;;;9.90;7.00;;;;;;;;;;6078843;29;20064;-70
2021/01/06 04:30:23;;;;;;;11.57;7.20;;;;;;;;;;6077435;29;20164;-72
2021/01/06 04:33:26;;;;;;;10.43;6.93;;;;;;;;;;6076842;29;20056;-70
2021/01/06 04:36:29;;;;;;;10.70;7.45;;;;;;;;;;6080410;29;20083;-70
2021/01/06 04:39:31;;;;;;;9.68;6.47;;;;;;;;;;6078669;29;20052;-71
2021/01/06 04:42:33;;;;;;;11.23;7.05;;;;;;;;;;6077270;29;20100;-71
2021/01/06 04:45:37;;;;;;;9.93;6.70;;;;;;;;;;6076883;29;20821;-70
2021/01/06 04:48:48;;;;;;;10.57;7.35;;;;;;;;;;6079502;29;20544;-71
2021/01/06 04:52:00;;;;;;;12.43;7.03;;;;;;;;;;6076536;29;20139;-72
2021/01/06 04:55:13;;;;;;;11.45;7.30;;;;;;;;;;6070617;29;20228;-70
2021/01/06 04:58:20;;;;;;;10.73;6.75;;;;;;;;;;6075513;29;20362;-71
2021/01/06 05:01:32;;;;;;;10.98;7.72;;;;;;;;;;6074080;29;20139;-71
2021/01/06 05:04:46;;;;;;;10.18;7.00;;;;;;;;;;6076313;29;20056;-76
2021/01/06 05:08:01;;;;;;;9.52;7.00;;;;;;;;;;6075289;29;20045;-71
2021/01/06 05:11:04;;;;;;;;;;;;;;;;;;6078080;29;20148;-70
2021/01/06 05:14:10;;;;;;;10.57;6.78;;;;;;;;;;6077155;29;19923;-72
2021/01/06 05:17:13;;;;;;;10.90;7.90;;;;;;;;;;6080331;29;20535;-71
2021/01/06 05:20:14;;;;;;;10.80;7.63;;;;;;;;;;6063904;29;20049;-71
2021/01/06 05:23:17;;;;;;;13.05;8.95;;;;;;;;;;6073976;29;20411;-74
2021/01/06 05:26:19;;;;;;;15.38;10.25;;;;;;;;;;6076620;29;20052;-71
2021/01/06 05:29:23;;;;;;;18.92;13.02;;;;;;;;;;6079718;29;20058;-69
2021/01/06 05:32:28;;;;;;;19.63;13.48;;;;;;;;;;6079005;29;20492;-70
2021/01/06 05:35:33;;;;;;;18.38;13.30;;;;;;;;;;6077628;29;20052;-71
2021/01/06 05:38:34;;;;;;;17.83;11.52;;;;;;;;;;6072237;29;20063;-71
2021/01/06 05:41:36;;;;;;;19.33;12.35;;;;;;;;;;6072461;29;20056;-71
2021/01/06 05:44:37;;;;;;;18.98;11.98;;;;;;;;;;6076401;29;20555;-71
2021/01/06 05:47:41;;;;;;;17.75;11.23;;;;;;;;;;6074311;29;21417;-71
2021/01/06 05:50:49;;;;;;;18.10;11.35;;;;;;;;;;6076363;29;20103;-72
2021/01/06 05:53:56;;;;;;;17.33;10.88;;;;;;;;;;6077081;29;20051;-72
2021/01/06 05:57:20;;;;;;;17.13;12.07;;;;;;;;;;6075430;29;20135;-71
2021/01/06 06:00:45;;;;;;;16.50;9.93;;;;;;;;;;6062836;29;20045;-74
2021/01/06 06:04:03;;;;;;;15.65;10.38;;;;;;;;;;6065925;29;20094;-71
2021/01/06 06:07:16;;;;;;;16.67;10.55;;;;;;;;;;6073095;29;20037;-71
2021/01/06 06:10:34;;;;;;;16.20;9.75;;;;;;;;;;6071658;29;20128;-71
2021/01/06 06:14:01;;;;;;;16.58;10.93;;;;;;;;;;6074898;29;20540;-71
2021/01/06 06:17:07;;;;;;;14.75;9.50;;;;;;;;;;6072320;29;20068;-71
2021/01/06 06:20:15;;;;;;;16.60;10.32;;;;;;;;;;6067244;29;20130;-73
2021/01/06 06:23:29;;;;;;;16.98;10.75;;;;;;;;;;6074549;29;20139;-71
2021/01/06 06:26:45;;;;;;;15.25;10.27;;;;;;;;;;6077513;29;20052;-71
2021/01/06 06:29:54;;;;;;;19.30;11.75;;;;;;;;;;6074660;29;20048;-71
2021/01/06 06:32:56;;;;;;;16.25;10.50;;;;;;;;;;6078607;29;20127;-72
2021/01/06 06:35:57;;;;;;;17.23;10.90;;;;;;;;;;6078710;29;20051;-72
2021/01/06 06:39:03;;;;;;;13.77;8.95;;;;;;;;;;6073664;29;20051;-70
2021/01/06 06:42:15;;;;;;;14.10;8.52;;;;;;;;;;6087745;29;20079;-71
2021/01/06 06:45:31;;;;;;;13.82;8.40;;;;;;;;;;6077579;29;20087;-70
2021/01/06 06:48:36;;;;;;;12.90;8.30;;;;;;;;;;6076906;29;20602;-76
2021/01/06 06:51:40;;;;;;;12.57;8.10;;;;;;;;;;6069688;29;20055;-70
2021/01/06 06:54:51;;;;;;;10.30;7.95;;;;;;;;;;6064812;29;20128;-76
2021/01/06 06:57:58;;;;;;;12.52;8.23;;;;;;;;;;6076127;29;20067;-73
2021/01/06 07:01:05;;;;;;;13.63;8.82;;;;;;;;;;6072745;29;21818;-74
2021/01/06 07:04:16;;;;;;;14.75;9.73;;;;;;;;;;6071390;29;20092;-72
2021/01/06 07:07:33;;;;;;;14.93;9.68;;;;;;;;;;6073043;29;20061;-72
2021/01/06 07:10:35;;;;;;;16.35;10.43;;;;;;;;;;6074288;29;20112;-71
2021/01/06 07:13:36;;;;;;;16.55;10.55;;;;;;;;;;6073063;29;20088;-72
2021/01/06 07:16:55;;;;;;;15.95;10.45;;;;;;;;;;6072974;29;20552;-70
2021/01/06 07:19:59;;;;;;;17.58;10.30;;;;;;;;;;6074391;29;20128;-73
2021/01/06 07:23:08;;;;;;;15.50;10.10;;;;;;;;;;6075057;29;20159;-72
2021/01/06 07:26:12;;;;;;;15.55;10.30;;;;;;;;;;6076468;29;20060;-72
2021/01/06 07:29:15;;;;;;;14.43;9.57;;;;;;;;;;6077441;29;20089;-72
2021/01/06 07:32:18;;;;;;;13.43;9.13;;;;;;;;;;6075700;29;20139;-72
2021/01/06 07:35:21;;;;;;;15.05;9.55;;;;;;;;;;6076566;29;20059;-73
2021/01/06 07:38:22;;;;;;;14.77;9.30;;;;;;;;;;6075647;29;20075;-72
2021/01/06 07:41:25;;;;;;;14.75;9.68;;;;;;;;;;6078799;29;20369;-71
2021/01/06 07:44:29;;;;;;;11.57;7.68;;;;;;;;;;6073589;29;20041;-72
2021/01/06 07:47:33;;;;;;;13.38;9.23;;;;;;;;;;6074043;29;20069;-71
2021/01/06 07:50:35;;;;;;;11.38;8.07;;;;;;;;;;6072321;29;20065;-71
2021/01/06 07:53:39;;;;;;;11.55;7.63;;;;;;;;;;6073581;29;20064;-72
2021/01/06 07:56:44;;;;;;;11.98;8.40;;;;;;;;;;6073552;29;20067;-76
2021/01/06 07:59:53;;;;;;;11.85;7.88;;;;;;;;;;6073880;29;20057;-72
2021/01/06 08:03:05;;;;;;;11.93;7.55;;;;;;;;;;6075262;29;20431;-71
2021/01/06 08:06:06;;;;;;;11.00;7.43;;;;;;;;;;6072195;29;20548;-70
2021/01/06 08:09:07;;;;;;;9.68;6.85;;;;;;;;;;6071980;29;20045;-72
2021/01/06 08:12:14;;;;;;;10.75;7.43;;;;;;;;;;6072746;29;20060;-71
2021/01/06 08:15:22;;;;;;;10.10;6.78;;;;;;;;;;6083136;29;20055;-70
2021/01/06 08:18:42;;;;;;;9.90;7.18;;;;;;;;;;6058787;29;20488;-74
2021/01/06 08:21:49;;;;;;;10.88;7.50;;;;;;;;;;6073558;29;21325;-73
2021/01/06 08:24:53;;;;;;;13.75;8.35;;;;;;;;;;6077767;29;20056;-71
2021/01/06 08:27:54;;;;;;;10.65;6.65;;;;;;;;;;6072025;29;20080;-71
2021/01/06 08:31:07;;;;;;;11.82;7.43;;;;;;;;;;5399767;29;10000163;-72
2021/01/06 08:34:19;;;;;;;12.80;8.63;;;;;;;;;;6071831;29;20056;-72
2021/01/06 08:37:23;;;;;;;14.13;9.25;;;;;;;;;;6077304;29;20058;-71
2021/01/06 08:40:33;;;;;;;13.82;9.15;;;;;;;;;;6072639;29;20045;-74
2021/01/06 08:43:36;;;;;;;12.70;8.52;;;;;;;;;;6075272;29;20043;-72
2021/01/06 08:46:40;;;;;;;13.20;8.07;;;;;;;;;;6066304;29;20132;-72
2021/01/06 08:49:45;;;;;;;17.50;8.88;;;;;;;;;;6072253;29;20076;-72
2021/01/06 08:52:50;;;;;;;13.15;8.73;;;;;;;;;;6072849;29;20049;-71
2021/01/06 08:55:55;;;;;;;13.27;9.15;;;;;;;;;;6064701;29;20045;-75
2021/01/06 08:58:57;;;;;;;13.00;8.60;;;;;;;;;;6067130;29;20056;-72
2021/01/06 09:01:59;;;;;;;11.77;8.13;;;;;;;;;;6065216;29;20090;-73
2021/01/06 09:05:01;;;;;;;11.55;7.95;;;;;;;;;;6067188;29;20051;-73
2021/01/06 09:08:09;;;;;;;10.18;7.07;;;;;;;;;;6065518;29;20864;-75
2021/01/06 09:11:15;;;;;;;10.45;6.78;;;;;;;;;;6067506;29;20617;-73
2021/01/06 09:14:27;;;;;;;12.77;7.85;;;;;;;;;;6063052;29;20049;-73
2021/01/06 09:17:36;;;;;;;11.52;7.78;;;;;;;;;;6062092;29;20048;-73
2021/01/06 09:20:50;;;;;;;9.50;6.45;;;;;;;;;;6063765;29;20049;-71
2021/01/06 09:23:53;;;;;;;12.25;7.25;;;;;;;;;;6061705;29;20451;-72
2021/01/06 09:26:56;;;;;;;10.23;6.78;;;;;;;;;;5388946;29;9999991;-71
2021/01/06 09:29:58;;;;;;;11.88;7.95;;;;;;;;;;6070020;29;20057;-73
2021/01/06 09:33:01;;;;;;;11.35;7.90;;;;;;;;;;6068641;29;20052;-71
2021/01/06 09:36:03;;;;;;;11.48;8.52;;;;;;;;;;6065579;29;20059;-71
2021/01/06 09:39:06;;;;;;;13.00;9.02;;;;;;;;;;6066948;29;20501;-74
2021/01/06 09:42:07;;;;;;;12.02;7.75;;;;;;;;;;6069061;29;20044;-72
2021/01/06 09:45:17;;;;;;;12.77;7.70;;;;;;;;;;6072297;29;20049;-71
2021/01/06 09:48:19;;;;;;;13.52;9.23;;;;;;;;;;6068263;29;20048;-73
2021/01/06 09:51:21;;;;;;;13.80;9.10;;;;;;;;;;6065576;29;20084;-71
2021/01/06 09:54:23;;;;;;;13.65;8.63;;;;;;;;;;6066108;29;20135;-72
2021/01/06 09:57:25;;;;;;;13.45;7.68;;;;;;;;;;6067319;29;20080;-71
2021/01/06 10:00:34;;;;;;;14.77;9.50;;;;;;;;;;6070831;29;20048;-70
2021/01/06 10:03:40;;;;;;;13.25;9.00;;;;;;;;;;6062763;29;20563;-73
2021/01/06 10:06:49;;;;;;;14.55;10.00;;;;;;;;;;6068617;29;20387;-70
2021/01/06 10:09:53;;;;;;;13.50;9.35;;;;;;;;;;6065772;29;20076;-71
2021/01/06 10:12:59;;;;;;;17.40;10.57;;;;;;;;;;6067623;29;20449;-70
2021/01/06 10:16:06;;;;;;;14.57;9.23;;;;;;;;;;6064647;29;20060;-69
2021/01/06 10:19:18;;;;;;;15.13;10.93;;;;;;;;;;6063236;29;20064;-71
2021/01/06 10:22:44;;;;;;;18.23;12.40;;;;;;;;;;6065510;29;20061;-71
2021/01/06 10:25:48;;;;;;;23.40;14.65;;;;;;;;;;6061155;29;20056;-73
2021/01/06 10:28:50;;;;;;;19.48;12.98;;;;;;;;;;6064766;29;20052;-71
2021/01/06 10:32:00;;;;;;;17.55;11.63;;;;;;;;;;6065317;29;20060;-72
2021/01/06 10:35:27;;;;;;;15.55;10.93;;;;;;;;;;6066565;29;20052;-74
2021/01/06 10:38:30;;;;;;;15.48;11.20;;;;;;;;;;6064125;29;20106;-72
2021/01/06 10:41:33;;;;;;;14.50;10.60;;;;;;;;;;6067414;29;20079;-72
2021/01/06 10:44:35;;;;;;;14.68;10.65;;;;;;;;;;6062802;29;20052;-71
2021/01/06 10:47:45;;;;;;;14.93;10.23;;;;;;;;;;6059941;29;20076;-71
2021/01/06 10:50:46;;;;;;;14.40;10.13;;;;;;;;;;6039189;29;20139;-71
2021/01/06 10:53:48;;;;;;;15.38;10.27;;;;;;;;;;6068058;29;20049;-72
2021/01/06 10:56:49;;;;;;;15.13;10.52;;;;;;;;;;6066653;29;20112;-71
2021/01/06 11:00:15;;;;;;;13.10;9.82;;;;;;;;;;6067281;29;20635;-71
2021/01/06 11:03:24;;;;;;;13.35;9.30;;;;;;;;;;6065374;29;20167;-71
2021/01/06 11:06:29;;;;;;;13.02;9.43;;;;;;;;;;6066810;29;20063;-71
2021/01/06 11:09:57;;;;;;;13.70;9.88;;;;;;;;;;6064810;29;20057;-71
2021/01/06 11:13:11;;;;;;;13.38;9.65;;;;;;;;;;6064462;29;20056;-70
2021/01/06 11:16:13;;;;;;;14.77;10.05;;;;;;;;;;6063589;29;20060;-71
2021/01/06 11:19:43;;;;;;;15.30;10.90;;;;;;;;;;6065618;29;20064;-72
2021/01/06 11:22:46;;;;;;;14.50;10.10;;;;;;;;;;6059984;29;20059;-70
2021/01/06 11:25:50;;;;;;;15.85;10.70;;;;;;;;;;6063666;29;20063;-71
2021/01/06 11:28:55;;;;;;;14.52;10.23;;;;;;;;;;6060946;29;20049;-71
2021/01/06 11:32:31;;;;;;;13.35;10.23;;;;;;;;;;5727492;29;10000618;-70
2021/01/06 11:35:42;;;;;;;15.75;11.35;;;;;;;;;;6056057;29;20437;-70
2021/01/06 11:38:51;;;;;;;15.82;10.52;;;;;;;;;;6059250;29;20136;-71
2021/01/06 11:42:10;;;;;;;14.18;10.68;;;;;;;;;;6071517;29;20136;-71
2021/01/06 11:45:12;;;;;;;16.50;10.95;;;;;;;;;;6066194;29;20060;-71
2021/01/06 11:48:27;;;;;;;16.10;10.77;;;;;;;;;;6073551;29;20067;-71
2021/01/06 11:51:28;;;;;;;13.10;9.98;;;;;;;;;;6068005;29;20480;-72
2021/01/06 11:54:31;;;;;;;15.38;11.00;;;;;;;;;;6067017;29;21781;-72
2021/01/06 11:57:42;;;;;;;16.13;10.48;;;;;;;;;;6056014;29;20519;-72
2021/01/06 12:01:16;;;;;;;14.68;9.93;;;;;;;;;;6065749;29;20519;-72
2021/01/06 12:04:31;;;;;;;17.00;10.50;;;;;;;;;;6064510;29;20059;-72
2021/01/06 12:07:36;;;;;;;16.35;11.35;;;;;;;;;;6068211;29;20533;-71
2021/01/06 12:10:49;;;;;;;14.00;9.98;;;;;;;;;;6065075;29;20774;-71
2021/01/06 12:13:57;;;;;;;14.05;8.80;;;;;;;;;;6065817;29;20056;-74
2021/01/06 12:17:15;;;;;;;13.10;9.20;;;;;;;;;;6072952;29;20048;-71
2021/01/06 12:20:22;;;;;;;13.23;8.95;;;;;;;;;;5395648;29;10000882;-75
2021/01/06 12:23:36;;;;;;;11.60;8.73;;;;;;;;;;6078301;29;20139;-69
2021/01/06 12:26:41;;;;;;;11.53;8.27;;;;;;;;;;6083296;29;20068;-72
2021/01/06 12:29:50;;;;;;;13.25;8.75;;;;;;;;;;6073361;29;21087;-70
2021/01/06 12:32:53;;;;;;;11.50;8.20;;;;;;;;;;6069470;29;20758;-71
2021/01/06 12:36:07;;;;;;;15.00;10.17;;;;;;;;;;6073966;29;20079;-72
2021/01/06 12:39:27;;;;;;;17.00;10.95;;;;;;;;;;6072934;29;20488;-71
2021/01/06 12:42:32;;;;;;;15.02;10.13;;;;;;;;;;6068791;29;20060;-71
2021/01/06 12:45:37;;;;;;;15.20;10.60;;;;;;;;;;6077155;29;20044;-71
2021/01/06 12:48:55;;;;;;;17.30;11.05;;;;;;;;;;6072633;29;20065;-70
2021/01/06 12:52:16;;;;;;;15.65;10.45;;;;;;;;;;6070500;29;20068;-70
2021/01/06 12:55:26;;;;;;;14.45;9.88;;;;;;;;;;6068941;29;20518;-71
2021/01/06 12:58:32;;;;;;;12.88;9.23;;;;;;;;;;6070625;29;20049;-73
2021/01/06 13:01:41;;;;;;;12.52;9.27;;;;;;;;;;6076107;29;20052;-79
2021/01/06 13:04:45;;;;;;;14.23;9.75;;;;;;;;;;6078254;29;20131;-73
2021/01/06 13:07:50;;;;;;;12.33;9.00;;;;;;;;;;6076979;29;20048;-71
2021/01/06 13:10:52;;;;;;;12.07;8.18;;;;;;;;;;6074845;29;20044;-71
2021/01/06 13:14:09;;;;;;;11.00;7.38;;;;;;;;;;6080022;29;20049;-71
2021/01/06 13:17:26;;;;;;;12.13;8.05;;;;;;;;;;6081278;29;20408;-71
2021/01/06 13:20:40;;;;;;;13.38;8.38;;;;;;;;;;6079817;29;20059;-71
2021/01/06 13:23:44;;;;;;;9.68;7.60;;;;;;;;;;6080034;29;20049;-72
2021/01/06 13:26:57;;;;;;;10.10;7.68;;;;;;;;;;6074855;29;20501;-73
2021/01/06 13:30:00;;;;;;;11.85;8.40;;;;;;;;;;6082026;29;20454;-73
2021/01/06 13:33:09;;;;;;;11.85;8.32;;;;;;;;;;6075938;29;20175;-74
2021/01/06 13:36:24;;;;;;;12.13;8.20;;;;;;;;;;6087806;29;20058;-72
2021/01/06 13:39:29;;;;;;;11.23;8.10;;;;;;;;;;6071870;29;20053;-72
2021/01/06 13:42:33;;;;;;;11.40;7.75;;;;;;;;;;6074427;29;20086;-74
2021/01/06 13:45:51;;;;;;;10.73;7.55;;;;;;;;;;6079137;29;20059;-73
2021/01/06 13:49:05;;;;;;;9.43;6.88;;;;;;;;;;6078690;29;20049;-75
2021/01/06 13:52:10;;;;;;;11.00;7.50;;;;;;;;;;6071684;29;20496;-76
2021/01/06 13:55:34;;;;;;;10.63;7.13;;;;;;;;;;6071691;29;20729;-78
2021/01/06 13:58:39;;;;;;;11.18;8.15;;;;;;;;;;6072270;29;20068;-73
2021/01/06 14:01:46;;;;;;;11.65;7.78;;;;;;;;;;6072268;29;20056;-71
2021/01/06 14:04:50;;;;;;;10.68;7.82;;;;;;;;;;6074154;29;20044;-73
2021/01/06 14:08:05;;;;;;;11.15;8.40;;;;;;;;;;6076708;29;20061;-73
2021/01/06 14:11:21;;;;;;;11.98;8.95;;;;;;;;;;6078832;29;20776;-73
2021/01/06 14:14:33;;;;;;;10.32;7.97;;;;;;;;;;6066885;29;20164;-75
2021/01/06 14:17:45;;;;;;;12.35;9.43;;;;;;;;;;6076092;29;20055;-73
2021/01/06 14:20:55;;;;;;;12.80;8.80;;;;;;;;;;6074891;29;20708;-73
2021/01/06 14:24:01;;;;;;;11.25;9.02;;;;;;;;;;5726815;29;10000126;-70
2021/01/06 14:27:27;;;;;;;11.07;8.50;;;;;;;;;;6058458;29;20060;-71
2021/01/06 14:30:33;;;;;;;12.57;8.90;;;;;;;;;;6067639;29;20052;-72
2021/01/06 14:33:47;;;;;;;11.60;8.77;;;;;;;;;;6058236;29;20159;-72
2021/01/06 14:36:52;;;;;;;12.55;9.15;;;;;;;;;;6065678;29;20041;-71
2021/01/06 14:40:05;;;;;;;13.23;9.38;;;;;;;;;;6063842;29;20057;-71
2021/01/06 14:43:11;;;;;;;13.48;9.18;;;;;;;;;;6063917;29;20067;-73
2021/01/06 14:46:25;;;;;;;12.80;10.13;;;;;;;;;;6067561;29;20048;-72
2021/01/06 14:49:30;;;;;;;12.10;8.57;;;;;;;;;;6070722;29;20123;-72
2021/01/06 14:52:34;;;;;;;15.43;9.82;;;;;;;;;;6070550;29;20056;-71
2021/01/06 14:55:39;;;;;;;13.30;9.95;;;;;;;;;;6074743;29;20044;-73
2021/01/06 14:59:00;;;;;;;12.57;9.85;;;;;;;;;;6063194;29;20058;-72
2021/01/06 15:02:16;;;;;;;14.57;10.55;;;;;;;;;;6063247;29;20537;-71
2021/01/06 15:05:26;;;;;;;14.90;10.68;;;;;;;;;;6066062;29;20044;-70
2021/01/06 15:08:32;;;;;;;14.65;10.18;;;;;;;;;;6071976;29;20057;-70
2021/01/06 15:11:36;;;;;;;14.25;10.43;;;;;;;;;;6070072;29;20096;-70
2021/01/06 15:14:47;;;;;;;12.93;9.57;;;;;;;;;;6065884;29;20056;-71
2021/01/06 15:17:56;;;;;;;14.13;9.60;;;;;;;;;;6072648;29;20067;-71
2021/01/06 15:20:58;;;;;;;12.85;9.82;;;;;;;;;;6079654;29;20044;-71
2021/01/06 15:24:02;;;;;;;15.07;9.93;;;;;;;;;;6074222;29;20114;-71
2021/01/06 15:27:05;;;;;;;12.77;9.43;;;;;;;;;;6061916;29;20170;-72
2021/01/06 15:30:15;;;;;;;14.40;9.45;;;;;;;;;;6073523;29;21025;-72
2021/01/06 15:33:26;;;;;;;12.32;8.98;;;;;;;;;;6067804;29;20052;-72
2021/01/06 15:36:31;;;;;;;11.27;9.00;;;;;;;;;;6066480;29;21307;-72
2021/01/06 15:39:33;;;;;;;;;;;;;;;;;;6074127;29;20147;-74
2021/01/06 15:42:35;;;;;;;13.35;9.38;;;;;;;;;;6069704;29;20014;-72
2021/01/06 15:45:36;;;;;;;16.23;10.23;;;;;;;;;;6069926;29;20642;-71
2021/01/06 15:48:38;;;;;;;14.40;9.82;;;;;;;;;;6067365;29;20059;-72
2021/01/06 15:51:40;;;;;;;13.48;9.85;;;;;;;;;;6064325;29;20053;-72
2021/01/06 15:54:42;;;;;;;15.48;10.68;;;;;;;;;;6071729;29;20143;-71
2021/01/06 15:57:44;;;;;;;14.02;10.20;;;;;;;;;;6071365;29;20046;-72
2021/01/06 16:00:48;;;;;;;12.75;9.82;;;;;;;;;;6064468;29;20057;-72
2021/01/06 16:03:55;;;;;;;13.07;10.15;;;;;;;;;;6071055;29;20148;-71
2021/01/06 16:07:00;;;;;;;17.05;11.32;;;;;;;;;;5729817;29;10000727;-74
2021/01/06 16:10:15;;;;;;;17.23;10.93;;;;;;;;;;6072860;29;20424;-67
2021/01/06 16:13:17;;;;;;;;;;;;;;;;;;6073406;29;20071;-67
2021/01/06 16:16:23;;;;;;;16.15;11.05;;;;;;;;;;6071742;29;20306;-67
2021/01/06 16:19:25;;;;;;;16.23;11.40;;;;;;;;;;6070687;29;20144;-67
2021/01/06 16:22:28;;;;;;;17.17;12.43;;;;;;;;;;6067109;29;20631;-68
2021/01/06 16:25:33;;;;;;;24.00;11.82;;;;;;;;;;6072636;29;20053;-66
2021/01/06 16:28:34;;;;;;;17.13;11.98;;;;;;;;;;6065671;29;20048;-66
2021/01/06 16:31:37;;;;;;;16.02;11.65;;;;;;;;;;6065713;29;20052;-68
2021/01/06 16:34:38;;;;;;;69.55;13.85;;;;;;;;;;6069006;29;20044;-66
2021/01/06 16:37:39;;;;;;;17.33;12.40;;;;;;;;;;6074242;29;20135;-68
2021/01/06 16:40:45;;;;;;;19.98;13.20;;;;;;;;;;6068602;29;20060;-68
2021/01/06 16:43:47;;;;;;;19.45;13.50;;;;;;;;;;6064006;29;21516;-68
2021/01/06 16:46:49;;;;;;;17.98;13.35;;;;;;;;;;6071829;29;20139;-68
2021/01/06 16:49:52;;;;;;;30.42;13.80;;;;;;;;;;6067122;29;20060;-68
2021/01/06 16:52:55;;;;;;;19.88;14.35;;;;;;;;;;6068969;29;20040;-66
2021/01/06 16:56:07;;;;;;;19.00;13.70;;;;;;;;;;6064259;29;20683;-67
2021/01/06 16:59:09;;;;;;;17.95;12.18;;;;;;;;;;6064580;29;20048;-68
2021/01/06 17:02:15;;;;;;;18.90;14.32;;;;;;;;;;6066987;29;20773;-68
2021/01/06 17:05:18;;;;;;;19.48;13.77;;;;;;;;;;6073433;29;20104;-69
2021/01/06 17:08:22;;;;;;;18.33;13.43;;;;;;;;;;6065577;29;20064;-67
2021/01/06 17:11:24;;;;;;;20.77;14.90;;;;;;;;;;6064964;29;20492;-69
2021/01/06 17:14:26;;;;;;;20.05;13.85;;;;;;;;;;6063897;29;20666;-67
2021/01/06 17:17:29;;;;;;;20.35;15.07;;;;;;;;;;6065719;29;20055;-68
2021/01/06 17:20:31;;;;;;;21.35;14.13;;;;;;;;;;6069308;29;20068;-67
2021/01/06 17:23:32;;;;;;;19.95;14.32;;;;;;;;;;6065189;29;20064;-69
2021/01/06 17:26:36;;;;;;;20.77;13.88;;;;;;;;;;6064243;29;20071;-70
2021/01/06 17:29:37;;;;;;;22.02;14.70;;;;;;;;;;6058293;29;20131;-66
2021/01/06 17:32:39;;;;;;;20.83;13.88;;;;;;;;;;6066241;29;20099;-67
2021/01/06 17:35:40;;;;;;;19.45;13.43;;;;;;;;;;6065612;29;20074;-67
2021/01/06 17:38:44;;;;;;;19.30;14.15;;;;;;;;;;6069307;29;20036;-67
2021/01/06 17:41:45;;;;;;;;;;;;;;;;;;6068996;29;20053;-69
2021/01/06 17:44:46;;;;;;;18.67;12.88;;;;;;;;;;6070888;29;20441;-68
2021/01/06 17:47:48;;;;;;;17.27;11.63;;;;;;;;;;6068947;29;20044;-67
2021/01/06 17:50:51;;;;;;;20.15;14.57;;;;;;;;;;6064852;29;20755;-67
2021/01/06 17:53:56;;;;;;;24.40;15.60;;;;;;;;;;6065356;29;20048;-68
2021/01/06 17:56:57;;;;;;;23.58;15.18;;;;;;;;;;6043005;29;20040;-67
2021/01/06 17:59:59;;;;;;;23.45;15.07;;;;;;;;;;6066093;29;20060;-67
2021/01/06 18:03:09;;;;;;;22.38;15.43;;;;;;;;;;6068641;29;20065;-67
2021/01/06 18:06:22;;;;;;;23.23;15.63;;;;;;;;;;6065777;29;20107;-67
2021/01/06 18:09:24;;;;;;;22.50;15.60;;;;;;;;;;6067567;29;20044;-68
2021/01/06 18:12:29;;;;;;;23.35;16.10;;;;;;;;;;6068470;29;20078;-68
2021/01/06 18:15:30;;;;;;;23.33;15.43;;;;;;;;;;6062851;29;20640;-68